1924 NOT_NAMED (1924160N19113)


IBTrACS version v04r00. Visit IBTrACS website for data access.
Please direct all questions to the IBTrACS Q and A forum

Storm track - Intensity - Wind Radii - Intensity Data - Source Data - All data

Summary Information

Storm ID 1924160N19113
Start Jun 7 22Z
Landfall Jun 9 03Z, Jun 9 09Z
End Jun 9 22Z
ATCF IDs
Track status Best track data.

Storm track plot

Map of storm track

Intensity plots

No Intensity information for this storm


Radial wind information

No radial wind information for this storm


Position and Intensity Table

BASIN ISO_TIME_________ NATURE LAT LON
degrees north degrees east
WP 1924-06-07 22:00:00 NR 19.00 113.40
WP 1924-06-08 00:00:00 NR 19.08 113.23
WP 03:00:00 NR 19.20 112.98
WP 06:00:00 NR 19.30 112.73
WP 09:00:00 NR 19.38 112.48
WP 10:00:00 NR 19.40 112.40
WP 12:00:00 NR 19.43 112.23
WP 15:00:00 NR 19.47 111.98
WP 18:00:00 NR 19.50 111.70
WP 21:00:00 NR 19.57 111.41
WP 22:00:00 NR 19.60 111.30
WP 1924-06-09 00:00:00 NR 19.70 111.07
WP 03:00:00 NR 19.87 110.70
WP 06:00:00 NR 20.06 110.31
WP 09:00:00 NR 20.25 109.93
WP 10:00:00 NR 20.30 109.80
WP 12:00:00 NR 20.40 109.55
WP 15:00:00 NR 20.51 109.20
WP 18:00:00 NR 20.60 108.85
WP 21:00:00 NR 20.68 108.51
WP 22:00:00 NR 20.70 108.40

Source Information

Agency Information
USA
TOKYO
CMA
HKO
NEWDELHI
REUNION
BOM
NADI
WELLINGTON
DS824
TD9636 cons_worldwide_trop_cyclone_18710101-19891231-003:Line=7130
TD9635
NEUMANN
MLC

All available IBTrACS Data

SEASON BASIN SUBBASIN ISO_TIME_________ NATURE LAT LON DIST2LAND LANDFALL IFLAG USA SSHS TD9636 LAT TD9636 LON TD9636 STAGE STORM SPEED STORM DIR
Year degrees north degrees east km km 1 degrees north degrees east kts degrees
1924 WP MM 1924-06-07 22:00:00 NR 19.00 113.40 260 237 __________O___ -1 19.00 113.40 2 5 297
1924 WP MM 1924-06-08 00:00:00 NR 19.08 113.23 237 214 __________P___ -1 19.08 113.23 2 5 297
1924 WP MM 03:00:00 NR 19.20 112.98 214 181 __________P___ -1 19.20 112.98 2 5 295
1924 WP MM 06:00:00 NR 19.30 112.73 181 158 __________P___ -1 19.30 112.73 2 5 291
1924 WP MM 09:00:00 NR 19.38 112.48 158 148 __________P___ -1 19.38 112.48 2 5 288
1924 WP MM 10:00:00 NR 19.40 112.40 148 127 __________O___ -1 19.40 112.40 2 5 282
1924 WP MM 12:00:00 NR 19.43 112.23 127 105 __________P___ -1 19.43 112.23 2 5 279
1924 WP MM 15:00:00 NR 19.47 111.98 105 74 __________P___ -1 19.47 111.98 2 5 278
1924 WP MM 18:00:00 NR 19.50 111.70 74 41 __________P___ -1 19.50 111.70 2 5 281
1924 WP MM 21:00:00 NR 19.57 111.41 41 31 __________P___ -1 19.57 111.41 2 6 284
1924 WP MM 22:00:00 NR 19.60 111.30 31 15 __________O___ -1 19.60 111.30 2 7 292
1924 WP MM 1924-06-09 00:00:00 NR 19.70 111.07 15 0 __________P___ -1 19.70 111.07 2 8 296
1924 WP MM 03:00:00 NR 19.87 110.70 0 0 __________P___ -1 19.87 110.70 2 8 297
1924 WP MM 06:00:00 NR 20.06 110.31 11 0 __________P___ -1 20.06 110.31 2 8 297
1924 WP MM 09:00:00 NR 20.25 109.93 0 0 __________P___ -1 20.25 109.93 2 8 296
1924 WP MM 10:00:00 NR 20.30 109.80 10 10 __________O___ -1 20.30 109.80 2 8 293
1924 WP MM 12:00:00 NR 20.40 109.55 23 33 __________P___ -1 20.40 109.55 2 7 290
1924 WP MM 15:00:00 NR 20.51 109.20 61 61 __________P___ -1 20.51 109.20 2 7 287
1924 WP MM 18:00:00 NR 20.60 108.85 86 94 __________P___ -1 20.60 108.85 2 7 284
1924 WP MM 21:00:00 NR 20.68 108.51 94 91 __________P___ -1 20.68 108.51 2 7 283
1924 WP MM 22:00:00 NR 20.70 108.40 91 __________O___ -1 20.70 108.40 2 6 283